Time;durP1;ratioP1;P1;durP2;ratioP2;P2;SDS_P1;SDS_P2;PMS_P1;PMS_P2;Temp;Humidity;BMP_temperature;BMP_pressure;BME280_temperature;BME280_humidity;BME280_pressure;Samples;Min_cycle;Max_cycle;Signal;HPM_P1;HPM_P2
2022/08/08 00:02:49;;;;;;;;;;;;;;;;;;;;;
2022/08/08 00:08:58;;;;;;;;;;;;;;;;;;;;;
2022/08/08 00:15:20;;;;;;;2.60;1.40;;;;;;;14.43;63.36;99248.42;219698;1277;22582;-74
2022/08/08 00:23:03;;;;;;;1.30;1.10;;;;;;;14.35;63.33;99258.05;219533;1277;22769;-75
2022/08/08 00:29:46;;;;;;;4.50;1.30;;;;;;;14.32;63.59;99255.77;219597;1276;24769;-75
2022/08/08 00:36:09;;;;;;;2.20;1.20;;;;;;;14.24;63.62;99252.58;219927;1276;25383;-74
2022/08/08 00:42:32;;;;;;;6.10;1.80;;;;;;;14.20;63.70;99255.89;220114;1277;22589;-75
2022/08/08 00:56:03;;;;;;;2.50;1.30;;;;;;;14.08;63.81;99242.60;219687;1277;22554;-75
2022/08/08 01:02:18;;;;;;;3.10;1.40;;;;;;;14.06;63.86;99239.26;219877;1277;22545;-74
2022/08/08 01:08:33;;;;;;;3.50;1.50;;;;;;;14.05;64.03;99239.75;220044;1276;22528;-74
2022/08/08 01:14:51;;;;;;;;;;;;;;;;;;;;;
2022/08/08 01:57:44;;;;;;;2.00;1.80;;;;;;;13.56;65.38;99246.70;219641;1277;23534;-75
2022/08/08 02:11:48;;;;;;;;;;;;;;;;;;;;;
2022/08/08 02:19:04;;;;;;;4.10;1.80;;;;;;;13.43;65.97;99249.02;219886;1276;22540;-74
2022/08/08 02:26:11;;;;;;;;;;;;;;;;;;;;;
2022/08/08 02:46:00;;;;;;;4.50;2.00;;;;;;;13.17;67.13;99262.16;219711;1276;22621;-74
2022/08/08 02:52:14;;;;;;;5.70;1.30;;;;;;;13.17;67.40;99260.45;219438;1276;22538;-74
2022/08/08 03:13:31;;;;;;;;;;;;;;;;;;;;;
2022/08/08 03:27:02;;;;;;;4.40;1.70;;;;;;;13.22;68.17;99265.11;219906;1277;22675;-74
2022/08/08 03:33:21;;;;;;;3.50;1.60;;;;;;;13.25;68.28;99265.06;219908;1275;25429;-75
2022/08/08 03:47:21;;;;;;;;;;;;;;;;;;;;;
2022/08/08 03:53:25;;;;;;;;;;;;;;;;;;;;;
2022/08/08 04:00:48;;;;;;;5.20;1.70;;;;;;;13.41;68.59;99272.14;219997;1276;22522;-75
2022/08/08 04:06:49;;;;;;;3.90;1.70;;;;;;;13.52;68.62;99272.32;220113;1276;26442;-74
2022/08/08 04:20:01;;;;;;;5.60;3.40;;;;;;;13.73;68.76;99281.60;220032;1276;22598;-75
2022/08/08 04:40:07;;;;;;;;;;;;;;;;;;;;;
2022/08/08 04:46:28;;;;;;;2.50;1.80;;;;;;;14.44;69.36;99297.45;219755;1276;22557;-74
2022/08/08 04:52:12;;;;;;;3.20;2.10;;;;;;;14.64;69.46;99304.66;219718;1276;22687;-75
2022/08/08 04:58:39;;;;;;;2.50;1.50;;;;;;;14.87;69.37;99303.90;219591;1276;22722;-76
2022/08/08 05:04:20;;;;;;;3.80;1.80;;;;;;;15.12;69.01;99303.03;219764;1276;22708;-74
2022/08/08 05:10:29;;;;;;;5.40;2.00;;;;;;;15.33;68.55;99303.75;219990;1276;25429;-75
2022/08/08 05:16:39;;;;;;;5.10;1.60;;;;;;;15.50;68.26;99302.44;219994;1277;22574;-75
2022/08/08 05:23:28;;;;;;;2.70;1.40;;;;;;;15.65;67.73;99302.23;219934;1277;22615;-74
2022/08/08 05:36:21;;;;;;;;;;;;;;;;;;;;;
2022/08/08 05:42:54;;;;;;;4.90;1.60;;;;;;;15.79;66.51;99314.91;219871;1276;22926;-75
2022/08/08 05:55:24;;;;;;;3.00;1.60;;;;;;;15.91;65.81;99322.50;220002;1278;24428;-74
2022/08/08 06:03:09;;;;;;;5.50;1.60;;;;;;;16.03;65.54;99319.91;219962;1276;22540;-74
2022/08/08 06:07:59;;;;;;;6.20;1.90;;;;;;;16.22;65.41;99324.29;220311;1276;25260;-75
2022/08/08 06:14:25;;;;;;;6.80;1.30;;;;;;;16.58;65.25;99319.02;220747;1276;22725;-76
2022/08/08 06:19:47;;;;;;;;;;;;;;;;;;;;;
2022/08/08 06:25:56;;;;;;;2.50;1.30;;;;;;;17.18;64.31;99329.14;220404;1277;24288;-76
2022/08/08 06:32:06;;;;;;;3.00;1.40;;;;;;;17.61;63.65;99330.52;220224;1277;26748;-75
2022/08/08 06:38:36;;;;;;;3.90;1.20;;;;;;;18.04;62.79;99335.13;220080;1277;23747;-74
2022/08/08 06:44:52;;;;;;;;;;;;;;;;;;;;;
2022/08/08 06:51:00;;;;;;;;;;;;;;;;;;;;;
2022/08/08 06:56:38;;;;;;;;;;;;;;;;;;;;;
2022/08/08 07:02:33;;;;;;;0.80;0.80;;;;;;;19.58;58.38;99333.52;220344;1276;22553;-73
2022/08/08 07:08:31;;;;;;;1.70;0.70;;;;;;;19.94;57.34;99337.80;220035;1276;22559;-75
2022/08/08 07:13:58;;;;;;;4.00;0.90;;;;;;;20.25;56.24;99338.71;219969;1276;23964;-74
2022/08/08 07:19:49;;;;;;;4.50;0.80;;;;;;;20.60;55.88;99339.77;220238;1276;24295;-74
2022/08/08 07:25:59;;;;;;;1.30;0.60;;;;;;;20.96;54.60;99346.08;220591;1275;22704;-74
2022/08/08 07:31:45;;;;;;;2.10;0.70;;;;;;;21.05;52.96;99348.04;220372;1277;22592;-76
2022/08/08 07:37:00;;;;;;;2.80;0.70;;;;;;;21.16;52.53;99349.91;220554;1276;22559;-75
2022/08/08 07:42:54;;;;;;;2.10;0.60;;;;;;;21.32;51.84;99354.10;220328;1277;25379;-75
2022/08/08 07:48:59;;;;;;;3.00;0.60;;;;;;;21.56;51.38;99355.45;219734;1279;22572;-75
2022/08/08 07:54:49;;;;;;;1.90;0.80;;;;;;;21.84;51.03;99356.39;219694;1279;25670;-75
2022/08/08 08:00:13;;;;;;;3.80;0.80;;;;;;;22.10;50.32;99359.46;219566;1279;24295;-75
2022/08/08 08:06:01;;;;;;;1.60;0.80;;;;;;;22.28;49.43;99365.19;219564;1279;22582;-75
2022/08/08 08:11:40;;;;;;;1.60;1.00;;;;;;;22.48;48.93;99361.64;219623;1279;23360;-75
2022/08/08 08:17:57;;;;;;;0.90;0.70;;;;;;;22.65;48.57;99366.02;219931;1276;25401;-76
2022/08/08 08:23:53;;;;;;;4.00;0.90;;;;;;;22.86;47.43;99365.38;220154;1279;23962;-76
2022/08/08 08:29:34;;;;;;;1.30;0.90;;;;;;;23.10;46.97;99373.64;220382;1276;23045;-76
2022/08/08 08:35:23;;;;;;;1.80;1.00;;;;;;;23.26;46.96;99372.35;220051;1277;24303;-79
2022/08/08 08:40:56;;;;;;;1.80;0.90;;;;;;;23.44;46.35;99378.80;220289;1277;22547;-78
2022/08/08 08:46:10;;;;;;;2.50;1.70;;;;;;;23.56;45.63;99377.70;220456;1276;22576;-76
2022/08/08 08:51:43;;;;;;;2.40;0.90;;;;;;;23.68;45.54;99380.05;220042;1276;22664;-75
2022/08/08 08:57:07;;;;;;;3.20;1.40;;;;;;;23.74;44.48;99371.10;220054;1276;23801;-74
2022/08/08 09:02:40;;;;;;;1.40;1.20;;;;;;;23.70;44.57;99378.20;219939;1277;22586;-73
2022/08/08 09:08:26;;;;;;;2.90;1.40;;;;;;;23.60;43.96;99378.48;219685;1278;24397;-74
2022/08/08 09:14:38;;;;;;;5.40;1.60;;;;;;;23.65;43.97;99372.17;219628;1281;22546;-75
2022/08/08 09:19:50;;;;;;;1.90;1.10;;;;;;;23.73;43.75;99379.98;219662;1279;22527;-74
2022/08/08 09:26:05;;;;;;;3.30;1.10;;;;;;;23.77;43.51;99383.27;219557;1280;22580;-74
2022/08/08 09:32:02;;;;;;;4.40;1.30;;;;;;;23.89;43.31;99379.90;219635;1280;25385;-74
2022/08/08 09:37:37;;;;;;;2.90;1.40;;;;;;;24.22;42.79;99379.77;218858;1282;26402;-74
2022/08/08 09:43:49;;;;;;;2.90;1.40;;;;;;;24.59;42.13;99382.40;218943;1282;22713;-74
2022/08/08 09:49:20;;;;;;;;;;;;;;;25.09;41.90;99380.77;218433;1282;24496;-74
2022/08/08 09:55:14;;;;;;;3.90;1.80;;;;;;;25.35;41.57;99376.35;218873;1281;25278;-74
2022/08/08 10:00:30;;;;;;;3.90;2.30;;;;;;;25.25;41.05;99369.37;219675;1281;25215;-74
2022/08/08 10:06:42;;;;;;;2.40;1.30;;;;;;;25.35;41.08;99371.02;219403;1281;22605;-73
2022/08/08 10:11:55;;;;;;;1.60;1.40;;;;;;;25.34;40.51;99372.95;219533;1280;25637;-75
2022/08/08 10:18:01;;;;;;;;;;;;;;;;;;;;;
2022/08/08 10:24:06;;;;;;;2.60;1.30;;;;;;;24.86;40.19;99373.50;220183;1277;25217;-74
2022/08/08 10:29:47;;;;;;;1.10;1.00;;;;;;;24.81;40.44;99369.59;220142;1277;24231;-76
2022/08/08 10:35:34;;;;;;;2.90;1.40;;;;;;;24.67;39.86;99370.64;220321;1276;22547;-74
2022/08/08 10:41:25;;;;;;;2.00;1.30;;;;;;;24.46;40.49;99368.89;220323;1277;25530;-75
2022/08/08 10:46:54;;;;;;;4.20;1.30;;;;;;;24.41;40.51;99370.77;220437;1277;22584;-75
2022/08/08 10:52:26;;;;;;;3.00;1.50;;;;;;;24.18;40.22;99371.02;219746;1280;22659;-75
2022/08/08 10:58:02;;;;;;;3.30;1.50;;;;;;;24.18;40.86;99370.33;219781;1281;25306;-74
2022/08/08 11:03:31;;;;;;;3.10;1.50;;;;;;;24.25;40.90;99366.52;219955;1279;22537;-73
2022/08/08 11:09:20;;;;;;;3.90;1.20;;;;;;;24.43;40.74;99372.52;219716;1279;23209;-74
2022/08/08 11:14:27;;;;;;;3.10;1.50;;;;;;;24.56;40.64;99366.94;219774;1276;24311;-74
2022/08/08 11:19:58;;;;;;;1.80;1.40;;;;;;;24.70;40.62;99365.84;220367;1277;22591;-75
2022/08/08 11:25:16;;;;;;;2.00;1.70;;;;;;;24.86;40.69;99364.42;220357;1276;22723;-76
2022/08/08 11:30:43;;;;;;;1.70;1.60;;;;;;;25.02;40.51;99359.77;220251;1277;24231;-76
2022/08/08 11:35:57;;;;;;;3.00;1.90;;;;;;;25.31;40.15;99357.17;220090;1276;22573;-75
2022/08/08 11:41:06;;;;;;;2.20;1.40;;;;;;;25.51;39.97;99351.86;220160;1277;22735;-75
2022/08/08 11:46:09;;;;;;;2.40;1.40;;;;;;;25.77;39.40;99349.23;220067;1276;22548;-75
2022/08/08 11:51:23;;;;;;;4.00;1.80;;;;;;;25.89;39.38;99348.23;220135;1276;24101;-77
2022/08/08 11:56:44;;;;;;;2.90;1.80;;;;;;;26.17;39.05;99354.70;220235;1276;22705;-75
2022/08/08 12:02:07;;;;;;;2.00;1.80;;;;;;;26.12;38.09;99352.08;220344;1277;24242;-75
2022/08/08 12:07:54;;;;;;;2.50;1.50;;;;;;;26.02;38.48;99350.02;220224;1277;22545;-75
2022/08/08 12:13:13;;;;;;;3.00;1.80;;;;;;;25.97;38.10;99347.62;220391;1277;25373;-76
2022/08/08 12:18:51;;;;;;;3.90;1.90;;;;;;;25.56;37.96;99346.49;220339;1277;24152;-77
2022/08/08 12:24:30;;;;;;;2.70;2.00;;;;;;;25.51;38.52;99344.56;220481;1277;24483;-78
2022/08/08 12:29:52;;;;;;;3.00;2.10;;;;;;;25.47;38.19;99347.09;220058;1278;24327;-78
2022/08/08 12:35:08;;;;;;;2.40;1.60;;;;;;;25.70;38.38;99345.30;220470;1277;22537;-77
2022/08/08 12:40:49;;;;;;;3.90;1.90;;;;;;;26.00;38.06;99349.53;220322;1277;24262;-76
2022/08/08 12:46:25;;;;;;;1.90;1.40;;;;;;;26.08;37.61;99342.31;220505;1277;25043;-77
2022/08/08 12:51:49;;;;;;;3.60;1.50;;;;;;;26.01;37.90;99336.05;220329;1277;22598;-75
2022/08/08 12:57:28;;;;;;;2.10;1.70;;;;;;;25.84;37.46;99331.64;220505;1277;25214;-79
2022/08/08 13:02:41;;;;;;;2.50;1.80;;;;;;;25.68;38.02;99331.10;220291;1276;24266;-76
2022/08/08 13:08:23;;;;;;;3.60;2.20;;;;;;;25.77;38.22;99321.46;220486;1276;22576;-75
2022/08/08 13:13:50;;;;;;;6.60;2.20;;;;;;;25.95;38.35;99323.27;220432;1277;22648;-74
2022/08/08 13:18:59;;;;;;;2.40;1.50;;;;;;;25.95;37.70;99316.84;220436;1277;22618;-76
2022/08/08 13:24:43;;;;;;;;;;;;;;;;;;;;;
2022/08/08 13:29:58;;;;;;;2.20;2.00;;;;;;;25.87;37.72;99321.55;220416;1277;22714;-76
2022/08/08 13:36:01;;;;;;;;;;;;;;;;;;;;;
2022/08/08 13:41:32;;;;;;;3.00;2.00;;;;;;;25.46;38.42;99323.20;219068;1277;1587521;-76
2022/08/08 13:46:58;;;;;;;3.00;2.20;;;;;;;25.47;38.33;99321.55;221415;1277;22658;-76
2022/08/08 13:52:16;;;;;;;3.40;2.10;;;;;;;25.44;38.13;99315.73;220154;1277;26458;-76
2022/08/08 13:57:57;;;;;;;3.30;2.20;;;;;;;25.61;38.59;99314.66;220272;1277;22563;-76
2022/08/08 14:03:54;;;;;;;4.90;2.40;;;;;;;25.66;38.33;99311.64;220334;1277;23188;-75
2022/08/08 14:09:30;;;;;;;3.60;1.60;;;;;;;25.61;38.04;99307.52;220125;1277;22714;-77
2022/08/08 14:15:06;;;;;;;3.00;1.70;;;;;;;25.61;37.69;99308.61;220269;1277;22864;-76
2022/08/08 14:20:12;;;;;;;4.00;2.20;;;;;;;25.46;37.79;99310.58;220250;1277;22573;-76
2022/08/08 14:26:20;;;;;;;2.70;1.60;;;;;;;25.45;37.96;99315.90;220229;1276;22661;-75
2022/08/08 14:31:35;;;;;;;2.10;1.90;;;;;;;25.36;38.54;99307.89;219370;1281;22685;-75
2022/08/08 14:37:23;;;;;;;2.90;1.50;;;;;;;25.44;38.20;99311.10;219848;1277;23244;-76
2022/08/08 14:42:55;;;;;;;2.70;1.70;;;;;;;25.46;38.13;99313.33;219843;1276;22495;-75
2022/08/08 14:48:23;;;;;;;2.40;1.70;;;;;;;25.14;37.90;99319.44;219716;1277;22553;-76
2022/08/08 14:53:49;;;;;;;2.50;2.30;;;;;;;24.91;38.56;99318.45;219905;1277;24265;-76
2022/08/08 14:59:28;;;;;;;9.30;5.00;;;;;;;24.66;38.38;99320.14;219847;1277;22564;-75
2022/08/08 15:05:10;;;;;;;2.90;2.20;;;;;;;24.60;38.95;99314.89;219995;1278;24326;-74
2022/08/08 15:10:31;;;;;;;1.90;1.30;;;;;;;24.72;39.03;99303.87;219779;1278;25419;-75
2022/08/08 15:15:56;;;;;;;2.80;1.50;;;;;;;24.84;38.59;99308.73;219897;1278;22580;-75
2022/08/08 15:21:20;;;;;;;2.30;2.00;;;;;;;24.70;38.07;99311.05;219938;1277;22714;-75
2022/08/08 15:26:40;;;;;;;2.00;1.40;;;;;;;24.58;38.06;99312.81;220199;1276;22569;-75
2022/08/08 15:32:49;;;;;;;6.00;1.70;;;;;;;24.41;37.96;99312.96;219781;1277;22516;-75
2022/08/08 15:37:59;;;;;;;2.20;1.80;;;;;;;24.46;38.35;99310.77;219682;1277;23762;-76
2022/08/08 15:43:53;;;;;;;2.10;1.70;;;;;;;24.54;38.58;99306.26;219506;1280;22594;-74
2022/08/08 15:49:26;;;;;;;2.60;1.90;;;;;;;24.57;38.68;99304.59;219836;1280;25346;-76
2022/08/08 15:54:51;;;;;;;3.00;1.40;;;;;;;24.63;38.62;99302.89;219370;1280;25411;-76
2022/08/08 16:00:17;;;;;;;1.60;1.50;;;;;;;24.52;38.45;99307.09;219430;1280;22902;-74
2022/08/08 16:06:00;;;;;;;4.50;1.70;;;;;;;24.49;38.52;99304.85;219643;1278;22570;-76
2022/08/08 16:11:42;;;;;;;2.10;1.80;;;;;;;24.49;38.67;99306.03;220070;1277;24000;-74
2022/08/08 16:17:05;;;;;;;3.20;1.90;;;;;;;24.48;38.90;99305.09;219880;1277;22590;-75
2022/08/08 16:22:25;;;;;;;2.50;1.70;;;;;;;24.53;38.79;99312.05;219960;1277;22654;-75
2022/08/08 16:34:00;;;;;;;2.80;1.80;;;;;;;24.22;39.00;99312.13;220107;1276;22590;-75
2022/08/08 16:39:26;;;;;;;6.30;1.60;;;;;;;24.06;39.25;99317.50;220097;1277;23378;-76
2022/08/08 16:45:31;;;;;;;;;;;;;;;;;;;;;
2022/08/08 16:51:23;;;;;;;1.80;1.60;;;;;;;23.77;39.22;99314.95;220138;1276;22591;-77
2022/08/08 16:57:23;;;;;;;1.70;1.30;;;;;;;23.74;39.60;99321.07;220117;1276;24269;-75
2022/08/08 17:02:47;;;;;;;3.00;1.20;;;;;;;23.67;39.43;99320.11;220094;1276;22563;-75
2022/08/08 17:09:03;;;;;;;2.00;1.50;;;;;;;23.55;39.55;99321.75;220163;1277;22537;-74
2022/08/08 17:14:26;;;;;;;2.80;0.90;;;;;;;23.34;39.65;99324.25;220053;1276;22756;-74
2022/08/08 17:19:47;;;;;;;1.70;1.20;;;;;;;23.16;40.28;99328.88;220001;1277;25701;-75
2022/08/08 17:25:41;;;;;;;2.20;1.30;;;;;;;23.10;40.65;99331.71;219977;1276;22744;-75
2022/08/08 17:31:41;;;;;;;1.30;1.10;;;;;;;22.95;40.34;99332.73;220032;1276;25376;-75
2022/08/08 17:37:37;;;;;;;2.00;1.30;;;;;;;22.77;40.36;99334.83;220737;1276;25328;-76
2022/08/08 17:43:21;;;;;;;3.30;1.40;;;;;;;22.51;40.92;99336.77;219556;1277;22600;-75
2022/08/08 17:48:32;;;;;;;3.60;1.50;;;;;;;22.32;41.19;99336.52;219954;1277;22561;-75
2022/08/08 18:00:31;;;;;;;4.40;1.20;;;;;;;21.80;42.00;99337.04;219152;1281;22626;-74
2022/08/08 18:06:32;;;;;;;1.40;1.10;;;;;;;21.54;42.50;99341.32;219193;1281;24340;-75
2022/08/08 18:18:05;;;;;;;;;;;;;;;;;;;;;
2022/08/08 18:23:42;;;;;;;2.10;1.00;;;;;;;20.76;44.02;99369.04;220033;1276;22542;-74
2022/08/08 18:29:54;;;;;;;3.90;0.90;;;;;;;20.54;44.63;99377.98;220046;1277;25411;-75
2022/08/08 18:35:20;;;;;;;1.80;1.10;;;;;;;20.36;45.21;99382.84;220087;1277;24214;-76
2022/08/08 18:42:01;;;;;;;3.30;1.30;;;;;;;20.15;45.79;99389.77;219803;1277;22773;-73
2022/08/08 18:48:29;;;;;;;;;;;;;;;;;;;;;
2022/08/08 18:54:12;;;;;;;0.60;0.60;;;;;;;19.76;46.71;99402.73;219894;1278;22555;-75
2022/08/08 19:01:08;;;;;;;;;;;;;;;;;;;;;
2022/08/08 19:07:52;;;;;;;2.00;1.00;;;;;;;19.40;47.84;99407.73;220097;1276;22586;-75
2022/08/08 19:13:41;;;;;;;1.90;1.10;;;;;;;19.25;48.30;99409.17;219816;1277;26550;-76
2022/08/08 19:19:20;;;;;;;2.80;1.40;;;;;;;19.11;48.52;99409.67;219827;1276;22701;-75
2022/08/08 19:24:59;;;;;;;4.50;1.60;;;;;;;18.99;48.89;99405.40;219673;1276;24422;-74
2022/08/08 19:31:27;;;;;;;6.10;1.90;;;;;;;18.87;49.41;99403.61;219679;1279;25439;-75
2022/08/08 19:37:24;;;;;;;2.60;1.50;;;;;;;18.71;49.67;99402.27;218507;1284;22683;-75
2022/08/08 19:49:46;;;;;;;2.90;1.70;;;;;;;18.44;50.61;99406.09;218556;1286;22630;-77
2022/08/08 19:55:12;;;;;;;3.20;1.80;;;;;;;18.33;50.91;99403.95;218289;1283;22576;-76
2022/08/08 20:00:44;;;;;;;3.60;1.90;;;;;;;18.24;51.28;99409.08;218732;1282;22567;-74
2022/08/08 20:06:26;;;;;;;3.20;1.60;;;;;;;18.11;51.60;99414.55;218368;1282;25259;-76
2022/08/08 20:11:29;;;;;;;2.80;1.60;;;;;;;18.02;51.99;99415.80;218032;1281;1002983;-74
2022/08/08 20:16:42;;;;;;;5.70;1.70;;;;;;;17.93;52.26;99418.16;217767;1280;1003913;-76
2022/08/08 20:21:58;;;;;;;6.50;1.90;;;;;;;17.79;52.66;99413.13;219100;1281;23329;-75
2022/08/08 20:27:28;;;;;;;2.40;1.40;;;;;;;17.72;52.93;99423.20;219257;1276;25328;-76
2022/08/08 20:33:20;;;;;;;3.30;1.80;;;;;;;17.63;53.25;99422.04;219953;1277;22566;-77
2022/08/08 20:38:55;;;;;;;4.00;1.70;;;;;;;17.53;53.56;99422.26;219980;1277;25241;-74
2022/08/08 20:44:17;;;;;;;3.10;1.50;;;;;;;17.45;53.91;99424.86;219209;1277;1003461;-76
2022/08/08 20:50:50;;;;;;;4.50;2.10;;;;;;;17.36;54.07;99432.52;217889;1276;1014882;-75
2022/08/08 20:56:52;;;;;;;;;;;;;;;;;;;;;
2022/08/08 21:02:26;;;;;;;5.80;2.20;;;;;;;16.94;55.11;99442.02;219019;1281;22559;-75
2022/08/08 21:07:56;;;;;;;6.30;2.40;;;;;;;16.74;55.72;99445.90;218426;1281;1003834;-77
2022/08/08 21:13:19;;;;;;;4.40;2.60;;;;;;;16.56;56.10;99439.48;219138;1281;22578;-76
2022/08/08 21:19:10;;;;;;;3.80;2.70;;;;;;;16.39;56.73;99438.81;219316;1281;22759;-74
2022/08/08 21:24:33;;;;;;;4.60;2.40;;;;;;;16.25;57.17;99440.48;219351;1276;23617;-75
2022/08/08 21:30:06;;;;;;;4.20;2.50;;;;;;;16.11;57.49;99439.66;219733;1276;22704;-76
2022/08/08 21:50:07;;;;;;;4.00;2.90;;;;;;;15.80;58.92;99432.19;202050;1277;1004233;-76
2022/08/08 21:56:47;;;;;;;;;;;;;;;;;;;;;
2022/08/08 22:03:00;;;;;;;5.60;3.30;;;;;;;15.66;59.54;99432.16;220060;1276;22703;-75
2022/08/08 22:08:51;;;;;;;7.60;4.00;;;;;;;15.61;59.78;99435.95;220065;1276;25281;-75
2022/08/08 22:14:32;;;;;;;7.50;3.90;;;;;;;15.58;59.94;99432.83;218512;1277;1002480;-75
2022/08/08 22:20:51;;;;;;;;;;;;;;;;;;;;;
2022/08/08 22:26:41;;;;;;;8.50;2.90;;;;;;;15.55;60.41;99433.32;219690;1279;25438;-77
2022/08/08 22:33:16;;;;;;;5.00;3.50;;;;;;;15.61;60.58;99432.13;218626;1279;1002115;-75
2022/08/08 22:39:57;;;;;;;8.20;4.10;;;;;;;15.69;60.77;99429.87;218658;1279;1003182;-74
2022/08/08 22:51:32;;;;;;;6.80;4.60;;;;;;;15.69;60.79;99434.89;220100;1276;25376;-75
2022/08/08 22:58:01;;;;;;;12.10;4.90;;;;;;;15.64;61.03;99434.69;219891;1276;23037;-75
2022/08/08 23:03:55;;;;;;;15.80;5.90;;;;;;;15.58;61.22;99441.95;219637;1275;25363;-76
2022/08/08 23:10:04;;;;;;;9.70;5.70;;;;;;;15.52;61.42;99445.17;220239;1276;23809;-75
2022/08/08 23:22:33;;;;;;;14.00;7.00;;;;;;;15.38;61.94;99442.04;219412;1279;23897;-74
2022/08/08 23:29:18;;;;;;;13.40;6.40;;;;;;;15.33;62.16;99440.95;219050;1282;22604;-74
2022/08/08 23:35:58;;;;;;;13.30;6.20;;;;;;;15.28;62.43;99443.05;217890;1287;25615;-76
2022/08/08 23:42:47;;;;;;;12.80;6.10;;;;;;;15.18;62.72;99445.15;218171;1282;1002989;-74
2022/08/08 23:48:52;;;;;;;11.50;5.90;;;;;;;15.12;62.99;99449.27;218745;1284;25229;-75
2022/08/08 23:55:25;;;;;;;;;;;;;;;;;;;;;
